High Point, Missouri
Current Conditions -  °F | °C
As of 6:53 PM on Monday 26 Jan 2015 (Local Time) from KJEF Reporting Station
Clear Clear  
Wind Chill: 44°   Ceiling: Unl
Heat Index: 46°   Visibility: 10mi
Dew Point: 35°   Wind: 5mph
Humidity: 66%   Direction: 310°NW
Pressure: 29.93"   Gusts: NA
Location:  38.48°N, 92.59°W
Report Text: KJEF 270053Z 31004KT 10SM CLR 08/02 A2993 RMK AO2 SLP128 T00780017
Loading
Personal Weather Stations






























Interactive Weather Map New forecast layout! Learn more

10-Day Weather Forecast

Advertisements
Track Severe Weather on mobile